Warning: file_get_contents(http://avwx.rest/api/metar/VHHH): failed to open stream: HTTP request failed! HTTP/1.1 500 INTERNAL SERVER ERROR in /var/www/metroair/shared/private/library/orig_library/lib_airport.php on line 361

MET194 - Hong Kong to Los Angeles

Airbus A330-243
152EP
12 hrs 25 mins
6305 nm
Scheduled - Daily

Bid/PiRep Status

Bid was submitted on Jan 02 2017.

PiRep # 74597: Approved by Dave Nichols on January 5th, 2017 17:56 UTC

Departure

Departing from
Hong Kong (HKG)
Departure gate
Terminal 1
Scheduled Departure
GMT 0145
Local 0945
METAR
TAF TAF VHHH 220500Z 2206/2312 VRB05KT 7000 FEW015 SCT025 TX24/2206Z TN18/2223Z TN15/2312Z TEMPO 2206/2219 09010KT TEMPO 2212/2219 3000 BR BECMG 2219/2221 36010KT 2500 BR -RA TEMPO 2221/2302 0800 FG BECMG 2303/2305 35015G25KT 7000 NSW
  • No charts available

Arrival

Arriving at
Los Angeles (LAX)
Arrival gate
Scheduled Arrival
GMT 1410
Local 0610
METAR KLAX 220553Z 29008KT 10SM OVC007 14/14 A3023 RMK AO2 SLP236 T01440139 10167 20144 56002
TAF KLAX 220535Z 2206/2312 VRB03KT P6SM BKN009 BKN080 FM220800 31009KT P6SM FEW010 BKN080 FM221300 VRB03KT 6SM BR OVC015 FM221900 27010KT P6SM SCT025 BKN050 FM222200 27012G22KT P6SM FEW025 SCT050 FM230100 35015KT P6SM SCT050

Route Map

Planning Resources

BEKO3A A461 IDUMA W22 SHL G471 PLT A599 PUD A593 NIRAT B576 CJU A586 TENAS B467 NULAR B233 DITOR B962 LEMBA B237 TK B240 ENM J179 MDO J804R FRIED TR19 YZP J523 TOU J501 OED J126 HANDY J1 RBL J126 SAC J65 EHF ZIGGY4 EHF
V3 ENVAR MJE PABBA OTR5 KALNA UNVER ENI AVE FIM ZIGGY4
LAKE2B V1 A470 LJG B221 SHZ G204 AND B221 NINAS G327 LAMEN A593 NIRAT B576 CJU A586 TENAS B467 NULAR B233 DITOR B962 LEMBA B237 TK B240 ENM J179 MDO J804R FRIED TRK19 YZP J523 YZT J590 YVR J5 SUMMA Q9 REBRG ZIGGY4 EHF
ENVAR M750 MJE A590 KAGIS OTR11 LEPKI 38E60 41E70 43E80 45N70 46N60 45N50 42N40 38N30 ALLBE PIRAT AVE FIM
OCEAN2A CONGA ENVAR M750 MJE A590 KAGIS OTR11 AVBET OTR9 EMRON PACOT_3 VESPA ENI J143 PYE J6 LANDO ZIGGY4
Route:
OFP Layout:
Units:
Detailed Navlog:
ETOPS Planning:
Plan Stepclimbs:
Runway Analysis:
Include NOTAMS:
FIR NOTAMS:
Flight Maps:

Return Flights

MET183
Boeing 777-300ER
1940 GMT
MET193
Airbus A330-243
0900 GMT

Popularity

Hub Current Bids PiReps this month Total PiReps
KMCI 0 0 5
KLAX 0 0 5
KBOS 0 0 1